Terminal Aerodrome Forecast
Issued by NWS

Home | Current Version | Previous Version | Text Only | Print | Product List | Glossary On
Versions: 1 2 3 4 5 6 7 8 9 10 11 12
000
FTUS44 KEPZ 291100
TAFTCS
TAF
KTCS 291120Z 2912/3012 35006KT P6SM BKN120
     FM291600 04014G24KT P6SM SCT050 BKN100
     FM292000 05018G28KT P6SM VCSH BKN050
     FM300200 05013KT 3SM SHRA BKN020=

USA.gov is the U.S. government's official web portal to all federal, state and local government web resources and services.